Time;durP1;ratioP1;P1;durP2;ratioP2;P2;SDS_P1;SDS_P2;PMS_P1;PMS_P2;Temp;Humidity;BMP_temperature;BMP_pressure;BME280_temperature;BME280_humidity;BME280_pressure;Samples;Min_cycle;Max_cycle;Signal;HPM_P1;HPM_P2
2022/05/28 00:05:07;;;;;;;7.03;1.50;;;11.10;99.90;;;;;;6620317;89;20332;-79
2022/05/28 00:15:09;;;;;;;8.23;1.35;;;11.10;99.90;;;;;;6624302;89;20681;-80
2022/05/28 00:25:12;;;;;;;7.70;1.25;;;11.20;99.90;;;;;;6623067;89;21024;-79
2022/05/28 00:35:16;;;;;;;9.30;1.50;;;11.10;99.90;;;;;;6622815;88;20241;-80
2022/05/28 00:45:17;;;;;;;5.95;1.40;;;11.00;99.90;;;;;;6624155;89;20256;-80
2022/05/28 00:55:19;;;;;;;7.45;1.33;;;10.90;99.90;;;;;;6623081;89;20242;-80
2022/05/28 01:05:45;;;;;;;7.97;1.25;;;10.70;99.90;;;;;;6624953;89;20211;-80
2022/05/28 01:15:56;;;;;;;10.33;1.27;;;10.80;99.90;;;;;;6626802;89;20675;-80
2022/05/28 01:26:09;;;;;;;8.07;1.60;;;10.60;99.90;;;;;;6625508;89;20185;-80
2022/05/28 01:36:12;;;;;;;4.60;1.15;;;10.70;99.90;;;;;;6642297;88;20235;-79
2022/05/28 01:46:16;;;;;;;5.28;1.23;;;10.50;99.90;;;;;;6639454;89;20208;-79
2022/05/28 01:56:16;;;;;;;8.18;1.35;;;10.60;99.90;;;;;;6643454;88;20223;-79
2022/05/28 02:06:18;;;;;;;9.18;1.35;;;10.60;99.90;;;;;;6642784;88;20216;-80
2022/05/28 02:16:35;;;;;;;5.87;1.30;;;10.80;99.90;;;;;;6645322;88;20240;-79
2022/05/28 02:26:41;;;;;;;7.28;1.73;;;10.60;99.90;;;;;;6640355;88;20736;-80
2022/05/28 02:36:42;;;;;;;;;;;10.50;99.90;;;;;;6635480;89;20203;-80
2022/05/28 02:46:42;;;;;;;8.93;1.08;;;10.40;99.90;;;;;;6636157;89;20090;-80
2022/05/28 02:56:43;;;;;;;6.03;1.48;;;10.10;99.90;;;;;;6629997;89;20203;-80
2022/05/28 03:06:43;;;;;;;6.97;1.40;;;10.20;99.90;;;;;;6623240;89;20627;-80
2022/05/28 03:16:44;;;;;;;4.78;1.20;;;10.10;99.90;;;;;;6632264;89;20218;-80
2022/05/28 03:26:45;;;;;;;7.45;1.50;;;10.20;99.90;;;;;;6655362;88;20223;-79
2022/05/28 03:36:46;;;;;;;10.02;1.60;;;10.30;99.90;;;;;;6646264;88;20206;-80
2022/05/28 03:46:47;;;;;;;8.40;1.60;;;10.40;99.90;;;;;;6646365;89;20196;-79
2022/05/28 03:56:53;;;;;;;7.32;1.48;;;10.30;99.90;;;;;;6685656;88;20524;-79
2022/05/28 04:06:53;;;;;;;8.17;1.50;;;10.20;99.90;;;;;;6654441;88;20189;-79
2022/05/28 04:16:54;;;;;;;9.93;1.62;;;10.20;99.90;;;;;;6700670;88;20169;-80
2022/05/28 04:26:54;;;;;;;7.45;1.80;;;10.20;99.90;;;;;;6659118;88;20196;-80
2022/05/28 04:36:55;;;;;;;11.15;2.00;;;10.20;99.90;;;;;;6656447;88;20621;-80
2022/05/28 04:46:55;;;;;;;8.85;1.65;;;10.40;99.90;;;;;;6668025;88;20194;-79
2022/05/28 04:56:56;;;;;;;10.40;2.10;;;10.60;99.90;;;;;;6660148;88;20778;-79
2022/05/28 05:06:57;;;;;;;8.50;2.00;;;11.10;99.90;;;;;;6662284;88;20256;-79
2022/05/28 05:16:57;;;;;;;11.50;1.98;;;11.30;99.90;;;;;;6660599;88;20170;-79
2022/05/28 05:26:58;;;;;;;8.57;1.80;;;11.50;99.90;;;;;;6667733;88;20200;-78
2022/05/28 05:36:58;;;;;;;11.07;2.15;;;11.80;99.90;;;;;;6661965;88;20177;-79
2022/05/28 05:46:59;;;;;;;11.25;3.05;;;12.00;99.90;;;;;;6659354;88;20170;-78
2022/05/28 05:57:00;;;;;;;10.15;2.12;;;12.30;99.90;;;;;;6690634;88;20189;-79
2022/05/28 06:07:03;;;;;;;11.75;2.25;;;12.60;99.90;;;;;;6659192;88;20217;-79
2022/05/28 06:17:05;;;;;;;11.98;1.92;;;13.00;99.90;;;;;;6660511;88;20173;-78
2022/05/28 06:27:06;;;;;;;9.57;1.90;;;13.40;99.90;;;;;;6683519;88;20212;-80
2022/05/28 06:37:11;;;;;;;6.43;1.83;;;13.20;99.90;;;;;;6670087;88;20212;-80
2022/05/28 06:47:12;;;;;;;11.45;2.00;;;13.20;99.90;;;;;;6636275;88;20249;-80
2022/05/28 06:57:12;;;;;;;10.43;2.25;;;13.30;99.90;;;;;;6645867;88;20313;-79
2022/05/28 07:07:14;;;;;;;9.45;2.20;;;13.20;99.90;;;;;;6710908;88;20200;-80
2022/05/28 07:17:14;;;;;;;10.18;1.90;;;13.60;99.90;;;;;;6714023;88;20181;-80
2022/05/28 07:27:16;;;;;;;11.25;2.20;;;13.60;99.90;;;;;;6635929;88;20177;-80
2022/05/28 07:37:17;;;;;;;8.32;1.65;;;14.00;99.90;;;;;;6650757;88;20166;-80
2022/05/28 07:47:18;;;;;;;10.57;2.50;;;14.00;99.90;;;;;;6638472;88;20218;-80
2022/05/28 07:57:19;;;;;;;4.05;1.48;;;15.40;99.90;;;;;;6642727;88;20250;-79
2022/05/28 08:07:19;;;;;;;5.05;0.95;;;15.80;99.90;;;;;;6660502;88;20809;-79
2022/05/28 08:17:20;;;;;;;5.00;0.98;;;15.90;99.90;;;;;;6651044;88;20279;-79
2022/05/28 08:27:21;;;;;;;6.85;1.48;;;15.30;99.90;;;;;;6637250;88;20186;-79
2022/05/28 08:37:21;;;;;;;7.35;1.70;;;14.80;99.90;;;;;;6635538;89;20217;-78
2022/05/28 08:47:35;;;;;;;10.10;1.92;;;14.80;99.90;;;;;;6649852;88;20358;-78
2022/05/28 08:57:54;;;;;;;4.90;1.17;;;16.40;99.90;;;;;;6635575;88;20208;-78
2022/05/28 09:07:59;;;;;;;6.57;1.10;;;16.80;99.90;;;;;;6638492;89;20199;-78
2022/05/28 09:17:59;;;;;;;6.73;1.23;;;17.70;99.10;;;;;;6648039;88;20234;-77
2022/05/28 09:28:24;;;;;;;5.55;1.30;;;16.60;99.90;;;;;;6629475;88;20264;-78
2022/05/28 09:38:44;;;;;;;3.90;0.93;;;17.60;98.40;;;;;;6645974;88;20478;-78
2022/05/28 09:48:47;;;;;;;4.80;1.10;;;18.50;94.00;;;;;;6636870;88;20597;-76
2022/05/28 09:58:47;;;;;;;4.22;1.10;;;17.60;96.10;;;;;;6628799;89;20645;-77
2022/05/28 10:08:48;;;;;;;4.12;1.00;;;19.60;92.80;;;;;;6639681;88;20195;-78
2022/05/28 10:18:58;;;;;;;3.83;0.80;;;19.80;88.70;;;;;;6631697;88;20272;-77
2022/05/28 10:29:28;;;;;;;2.70;0.75;;;18.90;89.70;;;;;;6627806;88;20872;-78
2022/05/28 10:39:28;;;;;;;4.10;0.80;;;18.50;87.20;;;;;;6635620;88;20202;-78
2022/05/28 10:50:03;;;;;;;4.10;0.90;;;18.80;86.90;;;;;;6628435;88;20272;-78
2022/05/28 11:00:15;;;;;;;3.33;0.70;;;18.90;85.00;;;;;;6659816;88;20196;-77
2022/05/28 11:10:16;;;;;;;3.67;0.70;;;20.40;83.40;;;;;;6654249;88;20616;-77
2022/05/28 11:20:38;;;;;;;2.97;0.70;;;20.90;79.90;;;;;;6629815;88;20218;-78
2022/05/28 11:30:43;;;;;;;1.87;0.68;;;21.00;79.00;;;;;;6625777;89;20644;-77
2022/05/28 11:41:12;;;;;;;3.60;0.70;;;21.20;75.30;;;;;;6624911;89;20320;-77
2022/05/28 11:51:29;;;;;;;3.10;1.15;;;21.90;75.70;;;;;;6630180;89;20181;-77
2022/05/28 12:01:37;;;;;;;4.05;0.60;;;21.90;71.90;;;;;;6630112;88;20232;-77
2022/05/28 12:11:45;;;;;;;2.42;0.50;;;21.00;71.10;;;;;;6635079;88;20218;-78
2022/05/28 12:21:46;;;;;;;5.10;0.70;;;21.70;67.70;;;;;;6630991;88;20209;-77
2022/05/28 12:31:47;;;;;;;3.58;0.70;;;22.40;64.50;;;;;;6618569;88;20719;-77
2022/05/28 12:41:59;;;;;;;3.10;0.70;;;22.90;63.00;;;;;;6627679;89;20324;-77
2022/05/28 12:52:24;;;;;;;4.65;1.00;;;21.70;65.10;;;;;;6639360;88;20228;-78
2022/05/28 13:02:28;;;;;;;2.83;0.57;;;21.50;68.00;;;;;;6635803;88;20257;-78
2022/05/28 13:12:49;;;;;;;2.42;0.60;;;22.10;66.90;;;;;;6650281;88;20874;-77
2022/05/28 13:23:09;;;;;;;4.18;0.60;;;20.40;65.40;;;;;;6660111;88;20245;-77
2022/05/28 13:33:17;;;;;;;4.75;0.85;;;20.90;67.10;;;;;;6635295;88;20679;-77
2022/05/28 13:43:23;;;;;;;3.83;0.75;;;20.50;64.90;;;;;;6663824;88;20227;-77
2022/05/28 13:53:29;;;;;;;4.15;0.82;;;20.50;68.70;;;;;;6626641;89;20602;-77
2022/05/28 14:03:32;;;;;;;4.90;0.80;;;21.10;66.50;;;;;;6641931;88;20310;-77
2022/05/28 14:13:41;;;;;;;3.60;1.10;;;21.90;68.40;;;;;;6637159;88;20200;-78
2022/05/28 14:23:45;;;;;;;3.67;0.80;;;22.70;64.60;;;;;;6631943;88;20192;-77
2022/05/28 14:33:52;;;;;;;5.55;1.00;;;21.30;66.10;;;;;;6640590;88;20209;-78
2022/05/28 14:43:54;;;;;;;6.57;1.00;;;21.50;65.40;;;;;;6629933;89;20204;-78
2022/05/28 14:53:54;;;;;;;3.62;0.60;;;21.00;65.10;;;;;;6621994;88;20265;-77
2022/05/28 15:03:56;;;;;;;1.67;0.50;;;20.30;65.40;;;;;;6640845;88;20209;-77
2022/05/28 15:14:31;;;;;;;4.47;0.80;;;21.00;63.60;;;;;;6623713;89;20200;-78
2022/05/28 15:24:31;;;;;;;5.07;1.10;;;21.10;65.30;;;;;;6650821;88;20194;-78
2022/05/28 15:34:32;;;;;;;3.60;0.80;;;20.20;66.30;;;;;;6633355;88;20223;-77
2022/05/28 15:44:33;;;;;;;3.97;0.90;;;19.10;66.90;;;;;;6651105;88;20232;-78
2022/05/28 15:54:34;;;;;;;2.53;0.70;;;20.50;66.70;;;;;;6626504;88;20212;-77
2022/05/28 16:04:35;;;;;;;4.82;1.20;;;21.00;65.00;;;;;;6627504;88;20262;-78
2022/05/28 16:14:38;;;;;;;5.12;1.00;;;20.70;65.90;;;;;;6643181;88;20255;-77
2022/05/28 16:24:38;;;;;;;4.25;0.98;;;21.80;64.10;;;;;;6628041;89;20185;-78
2022/05/28 16:34:39;;;;;;;5.62;1.10;;;21.50;64.10;;;;;;6632074;89;20773;-78
2022/05/28 16:44:39;;;;;;;5.45;1.20;;;20.30;65.00;;;;;;6645564;88;20264;-77
2022/05/28 16:54:40;;;;;;;6.63;1.23;;;19.60;65.20;;;;;;6624520;89;20213;-77
2022/05/28 17:04:41;;;;;;;4.40;0.90;;;19.10;66.30;;;;;;6643189;89;20565;-77
2022/05/28 17:14:41;;;;;;;9.13;1.10;;;18.80;66.60;;;;;;6642617;88;20187;-77
2022/05/28 17:24:43;;;;;;;5.40;1.20;;;18.50;67.70;;;;;;6625949;89;20217;-77
2022/05/28 17:34:46;;;;;;;8.48;1.58;;;20.00;66.70;;;;;;6625380;88;20368;-78
2022/05/28 17:44:50;;;;;;;5.50;1.10;;;19.60;66.00;;;;;;6657924;88;20215;-79
2022/05/28 17:54:50;;;;;;;5.25;1.08;;;20.30;65.10;;;;;;6690618;88;20236;-77
2022/05/28 18:04:54;;;;;;;4.57;1.50;;;20.10;67.00;;;;;;6652994;88;20253;-77
2022/05/28 18:14:55;;;;;;;5.60;1.20;;;19.40;68.10;;;;;;6629790;89;20607;-77
2022/05/28 18:25:16;;;;;;;7.07;1.40;;;18.90;69.30;;;;;;6703673;77;20349;-81
2022/05/28 18:35:18;;;;;;;5.15;1.25;;;19.50;68.40;;;;;;6709805;88;20206;-81
2022/05/28 18:45:19;;;;;;;6.97;1.40;;;18.20;70.30;;;;;;6708938;88;20286;-81
2022/05/28 18:55:19;;;;;;;7.40;1.25;;;17.00;73.40;;;;;;6706455;88;20216;-78
2022/05/28 19:05:21;;;;;;;5.35;1.15;;;16.20;75.50;;;;;;6711918;88;20205;-78
2022/05/28 19:15:24;;;;;;;5.75;1.45;;;15.90;75.80;;;;;;6727070;88;20304;-79
2022/05/28 19:35:44;;;;;;;6.75;1.42;;;15.50;76.60;;;;;;6727478;88;20231;-82
2022/05/28 19:45:50;;;;;;;7.40;1.55;;;15.10;77.60;;;;;;6725767;88;20218;-79
2022/05/28 19:55:50;;;;;;;9.00;1.50;;;15.00;80.50;;;;;;6723630;88;20183;-79
2022/05/28 20:05:58;;;;;;;7.37;1.25;;;14.80;83.90;;;;;;6727283;88;20220;-80
2022/05/28 20:15:58;;;;;;;6.57;1.10;;;14.50;87.30;;;;;;6726909;88;20180;-79
2022/05/28 20:26:00;;;;;;;7.25;1.45;;;14.20;88.10;;;;;;6715687;88;20237;-80
2022/05/28 20:36:01;;;;;;;8.40;1.50;;;13.90;89.80;;;;;;6700492;88;20266;-81
2022/05/28 20:46:10;;;;;;;5.85;1.30;;;13.80;90.40;;;;;;6719191;88;20190;-80
2022/05/28 20:56:13;;;;;;;3.83;1.35;;;13.60;90.30;;;;;;6709199;85;34363;-78
2022/05/28 21:06:17;;;;;;;6.80;1.40;;;13.50;90.50;;;;;;6665143;89;20184;-78
2022/05/28 21:16:24;;;;;;;7.07;1.70;;;13.20;91.20;;;;;;6648630;89;20739;-79
2022/05/28 21:36:45;;;;;;;6.78;1.67;;;12.40;96.90;;;;;;6667531;89;20688;-78
2022/05/28 21:46:46;;;;;;;7.10;1.42;;;12.10;99.90;;;;;;6655697;89;20288;-77
2022/05/28 21:56:46;;;;;;;8.43;1.67;;;11.90;99.90;;;;;;6645908;89;20831;-78
2022/05/28 22:06:47;;;;;;;3.62;1.30;;;11.70;99.90;;;;;;6660141;89;20204;-79
2022/05/28 22:16:48;;;;;;;5.97;1.45;;;11.50;99.90;;;;;;6651834;89;20644;-77
2022/05/28 22:26:48;;;;;;;7.40;1.40;;;11.30;99.90;;;;;;6651733;89;20338;-78
2022/05/28 22:36:49;;;;;;;10.00;1.60;;;11.30;99.90;;;;;;6647305;89;20260;-78
2022/05/28 22:46:50;;;;;;;6.10;1.42;;;11.20;99.90;;;;;;6653667;89;22338;-77
2022/05/28 22:56:50;;;;;;;4.47;1.20;;;11.10;99.90;;;;;;6650340;89;20210;-78
2022/05/28 23:06:51;;;;;;;5.97;1.25;;;11.00;99.90;;;;;;6652700;89;20595;-78
2022/05/28 23:16:51;;;;;;;6.43;1.50;;;10.90;99.90;;;;;;6597703;89;20216;-79
2022/05/28 23:26:52;;;;;;;8.20;1.40;;;11.00;99.90;;;;;;6581038;90;20578;-79
2022/05/28 23:37:02;;;;;;;8.80;1.20;;;10.70;99.90;;;;;;6641677;89;20197;-78
2022/05/28 23:47:11;;;;;;;6.07;1.20;;;10.40;99.90;;;;;;6634586;89;20220;-78
2022/05/28 23:57:12;;;;;;;5.30;1.30;;;10.30;99.90;;;;;;6638296;89;20250;-78
